Time;durP1;ratioP1;P1;durP2;ratioP2;P2;SDS_P1;SDS_P2;PMS_P1;PMS_P2;Temp;Humidity;BMP_temperature;BMP_pressure;BME280_temperature;BME280_humidity;BME280_pressure;Samples;Min_cycle;Max_cycle;Signal;HPM_P1;HPM_P2
2022/09/16 00:01:16;;;;;;;;;;;17.60;99.90;;;;;;4972974;28;19968;-72
2022/09/16 00:03:43;;;;;;;;;;;17.80;99.90;;;;;;4972301;28;19918;-71
2022/09/16 00:06:23;;;;;;;;;;;17.70;99.90;;;;;;4973472;28;20383;-71
2022/09/16 00:08:51;;;;;;;;;;;17.70;99.90;;;;;;4972262;28;20004;-72
2022/09/16 00:11:18;;;;;;;;;;;17.90;99.90;;;;;;4972995;28;19933;-72
2022/09/16 00:13:45;;;;;;;;;;;18.00;99.90;;;;;;4972009;28;19957;-70
2022/09/16 00:16:15;;;;;;;;;;;18.00;99.90;;;;;;4972337;28;20057;-72
2022/09/16 00:18:42;;;;;;;;;;;18.10;99.90;;;;;;4972622;28;19953;-70
2022/09/16 00:21:10;;;;;;;;;;;18.10;99.90;;;;;;4971643;28;19914;-70
2022/09/16 00:23:37;;;;;;;;;;;18.20;99.90;;;;;;4973235;28;19918;-70
2022/09/16 00:26:04;;;;;;;;;;;18.20;99.90;;;;;;4972353;28;19945;-71
2022/09/16 00:28:31;;;;;;;;;;;18.20;99.90;;;;;;4971188;28;19925;-71
2022/09/16 00:31:01;;;;;;;;;;;18.20;99.90;;;;;;4970877;28;20032;-73
2022/09/16 00:33:27;;;;;;;;;;;18.10;99.90;;;;;;4972957;28;19918;-70
2022/09/16 00:36:08;;;;;;;;;;;18.10;99.90;;;;;;4972134;28;19911;-71
2022/09/16 00:38:35;;;;;;;;;;;18.10;99.90;;;;;;4970824;28;19957;-71
2022/09/16 00:41:01;;;;;;;;;;;18.20;99.90;;;;;;4972879;28;20437;-72
2022/09/16 00:43:28;;;;;;;;;;;18.30;99.90;;;;;;4972144;28;19914;-70
2022/09/16 00:46:01;;;;;;;;;;;18.50;99.90;;;;;;4972227;28;19957;-71
2022/09/16 00:48:30;;;;;;;;;;;18.40;99.90;;;;;;4972799;28;19917;-72
2022/09/16 00:51:01;;;;;;;;;;;18.50;99.90;;;;;;4972001;28;19973;-71
2022/09/16 00:53:31;;;;;;;;;;;18.50;99.90;;;;;;4973040;28;20384;-71
2022/09/16 00:56:00;;;;;;;;;;;18.60;99.90;;;;;;4969997;28;19922;-71
2022/09/16 00:58:39;;;;;;;;;;;18.80;99.90;;;;;;4972881;28;19929;-71
2022/09/16 01:01:06;;;;;;;;;;;18.80;99.90;;;;;;4971692;28;19933;-71
2022/09/16 01:03:37;;;;;;;;;;;19.00;99.90;;;;;;4972886;28;19910;-71
2022/09/16 01:06:04;;;;;;;;;;;19.40;99.90;;;;;;4971937;28;19922;-72
2022/09/16 01:08:32;;;;;;;;;;;19.50;99.90;;;;;;4971554;28;19914;-71
2022/09/16 01:10:58;;;;;;;;;;;20.10;99.90;;;;;;4972862;28;19924;-72
2022/09/16 01:13:25;;;;;;;;;;;20.50;99.90;;;;;;4973246;28;19994;-70
2022/09/16 01:15:58;;;;;;;;;;;20.80;99.90;;;;;;4974586;28;19980;-70
2022/09/16 01:18:35;;;;;;;;;;;20.70;99.80;;;;;;4973192;28;20369;-71
2022/09/16 01:21:05;;;;;;;;;;;20.60;99.90;;;;;;4970332;28;19950;-69
2022/09/16 01:23:47;;;;;;;;;;;20.70;99.90;;;;;;4955056;29;20005;-71
2022/09/16 01:26:36;;;;;;;;;;;20.70;99.90;;;;;;4953935;29;19911;-70
2022/09/16 01:29:21;;;;;;;;;;;21.30;99.90;;;;;;4953556;29;19969;-69
2022/09/16 01:31:56;;;;;;;;;;;21.30;99.40;;;;;;4956831;28;20361;-70
2022/09/16 01:34:25;;;;;;;;;;;21.00;99.70;;;;;;4957043;29;19911;-72
2022/09/16 01:36:58;;;;;;;;;;;20.80;99.90;;;;;;4956989;29;19911;-70
2022/09/16 01:39:30;;;;;;;;;;;20.60;99.90;;;;;;4946176;29;19918;-70
2022/09/16 01:41:57;;;;;;;;;;;20.50;99.90;;;;;;4957040;29;19916;-70
2022/09/16 01:44:25;;;;;;;;;;;20.40;99.90;;;;;;4960511;28;19925;-69
2022/09/16 01:46:52;;;;;;;;;;;20.20;99.90;;;;;;4975859;28;19916;-70
2022/09/16 01:49:19;;;;;;;;;;;20.10;99.90;;;;;;4973494;28;19949;-69
2022/09/16 01:51:52;;;;;;;;;;;20.00;99.30;;;;;;4975586;28;20037;-69
2022/09/16 01:54:23;;;;;;;;;;;20.10;99.90;;;;;;4973930;28;19921;-71
2022/09/16 01:56:58;;;;;;;;;;;20.10;99.80;;;;;;4973731;28;19929;-72
2022/09/16 01:59:28;;;;;;;;;;;20.20;99.70;;;;;;4972793;28;19922;-69
2022/09/16 02:01:59;;;;;;;;;;;20.10;99.90;;;;;;4975624;28;19910;-69
2022/09/16 02:04:30;;;;;;;;;;;20.10;99.90;;;;;;4974519;28;19918;-70
2022/09/16 02:06:59;;;;;;;;;;;20.00;98.50;;;;;;4975622;28;19910;-69
2022/09/16 02:09:27;;;;;;;;;;;20.10;99.80;;;;;;4973901;28;19915;-70
2022/09/16 02:11:57;;;;;;;;;;;20.20;99.50;;;;;;4975477;28;20422;-71
2022/09/16 02:14:31;;;;;;;;;;;20.40;99.90;;;;;;4972297;28;19953;-72
2022/09/16 02:17:00;;;;;;;;;;;20.40;99.90;;;;;;4975154;28;20357;-72
2022/09/16 02:19:36;;;;;;;;;;;20.20;99.70;;;;;;4973846;28;20032;-72
2022/09/16 02:22:06;;;;;;;;;;;20.00;99.90;;;;;;4975197;28;20377;-72
2022/09/16 02:24:34;;;;;;;;;;;19.90;99.90;;;;;;4974155;28;19918;-71
2022/09/16 02:27:03;;;;;;;;;;;20.10;99.90;;;;;;4975074;28;20285;-72
2022/09/16 02:29:37;;;;;;;;;;;20.30;99.50;;;;;;4972733;28;20270;-71
2022/09/16 02:32:06;;;;;;;;;;;20.10;99.60;;;;;;4974768;28;19918;-71
2022/09/16 02:34:35;;;;;;;;;;;20.00;99.20;;;;;;4974068;28;19981;-69
2022/09/16 02:37:05;;;;;;;;;;;19.90;99.90;;;;;;4974783;28;19920;-70
2022/09/16 02:39:34;;;;;;;;;;;20.10;98.80;;;;;;4974363;28;20380;-69
2022/09/16 02:42:00;;;;;;;;;;;20.00;99.20;;;;;;4974087;28;19957;-70
2022/09/16 02:44:27;;;;;;;;;;;19.90;99.00;;;;;;4971957;28;19914;-69
2022/09/16 02:47:06;;;;;;;;;;;19.90;99.60;;;;;;4974477;28;19913;-71
2022/09/16 02:49:33;;;;;;;;;;;20.10;98.30;;;;;;4973336;28;19965;-70
2022/09/16 02:52:05;;;;;;;;;;;20.10;97.30;;;;;;4974502;28;19969;-70
2022/09/16 02:54:38;;;;;;;;;;;20.00;97.50;;;;;;4973788;28;19914;-71
2022/09/16 02:57:05;;;;;;;;;;;19.90;98.10;;;;;;4973879;28;19925;-72
2022/09/16 02:59:31;;;;;;;;;;;20.10;97.80;;;;;;4973406;28;20364;-71
2022/09/16 03:01:59;;;;;;;;;;;20.20;94.70;;;;;;4973730;28;19921;-72
2022/09/16 03:04:27;;;;;;;;;;;20.20;94.30;;;;;;4974347;28;20009;-71
2022/09/16 03:06:54;;;;;;;;;;;20.10;93.50;;;;;;4972217;28;19914;-71
2022/09/16 03:09:23;;;;;;;;;;;20.20;92.90;;;;;;4971325;28;19915;-72
2022/09/16 03:12:05;;;;;;;;;;;20.40;91.90;;;;;;4974170;28;19977;-71
2022/09/16 03:14:41;;;;;;;;;;;20.60;90.60;;;;;;4972196;28;20428;-71
2022/09/16 03:17:11;;;;;;;;;;;20.70;90.30;;;;;;4966758;28;19922;-72
2022/09/16 03:19:43;;;;;;;;;;;20.60;91.00;;;;;;4964126;28;19993;-72
2022/09/16 03:22:28;;;;;;;;;;;20.60;89.80;;;;;;4973443;28;19918;-71
2022/09/16 03:24:55;;;;;;;;;;;20.70;87.70;;;;;;4974179;28;19917;-70
2022/09/16 03:27:42;;;;;;;;;;;20.80;88.20;;;;;;4971660;28;19997;-71
2022/09/16 03:30:10;;;;;;;;;;;20.60;88.60;;;;;;4973475;28;20001;-71
2022/09/16 03:32:37;;;;;;;;;;;20.70;88.30;;;;;;4972507;28;19922;-72
2022/09/16 03:35:09;;;;;;;;;;;20.50;88.90;;;;;;4973706;28;20262;-69
2022/09/16 03:37:38;;;;;;;;;;;20.40;90.60;;;;;;4971718;28;20332;-69
2022/09/16 03:40:09;;;;;;;;;;;20.30;88.20;;;;;;4973616;28;20344;-70
2022/09/16 03:42:39;;;;;;;;;;;20.30;89.80;;;;;;4955276;28;20396;-71
2022/09/16 03:45:07;;;;;;;;;;;20.40;87.70;;;;;;4973463;28;19918;-69
2022/09/16 03:47:34;;;;;;;;;;;20.50;87.80;;;;;;4972486;28;19925;-70
2022/09/16 03:50:01;;;;;;;;;;;20.50;87.10;;;;;;4972146;28;19914;-72
2022/09/16 03:52:28;;;;;;;;;;;20.70;87.00;;;;;;4973521;28;19944;-73
2022/09/16 03:54:55;;;;;;;;;;;20.80;88.60;;;;;;4971645;28;19949;-70
2022/09/16 03:57:21;;;;;;;;;;;20.90;88.20;;;;;;4973531;28;19910;-71
2022/09/16 03:59:48;;;;;;;;;;;20.90;89.10;;;;;;4971729;28;19926;-72
2022/09/16 04:02:17;;;;;;;;;;;20.90;89.40;;;;;;4971557;28;19965;-68
2022/09/16 04:04:44;;;;;;;;;;;20.80;87.90;;;;;;4954198;29;20563;-70
2022/09/16 04:07:10;;;;;;;;;;;20.80;88.20;;;;;;4954173;28;20009;-70
2022/09/16 04:09:37;;;;;;;;;;;20.80;85.80;;;;;;4972853;28;19945;-71
2022/09/16 04:12:06;;;;;;;;;;;20.80;86.90;;;;;;4972200;28;19993;-69
2022/09/16 04:14:33;;;;;;;;;;;20.70;88.90;;;;;;4952794;29;19969;-71
2022/09/16 04:17:00;;;;;;;;;;;20.50;88.80;;;;;;4962537;28;19957;-68
2022/09/16 04:19:26;;;;;;;;;;;20.30;88.10;;;;;;4972516;28;19914;-71
2022/09/16 04:21:53;;;;;;;;;;;20.10;89.10;;;;;;4962837;28;20281;-70
2022/09/16 04:24:20;;;;;;;;;;;20.20;88.30;;;;;;4953943;29;20577;-71
2022/09/16 04:26:46;;;;;;;;;;;20.30;89.10;;;;;;4961813;28;19918;-70
2022/09/16 04:29:13;;;;;;;;;;;20.30;89.40;;;;;;4970751;28;19914;-70
2022/09/16 04:31:40;;;;;;;;;;;20.50;89.30;;;;;;4973091;28;19926;-70
2022/09/16 04:34:07;;;;;;;;;;;20.60;90.10;;;;;;4972507;28;19972;-68
2022/09/16 04:36:33;;;;;;;;;;;20.70;87.10;;;;;;4973964;28;19964;-70
2022/09/16 04:39:00;;;;;;;;;;;20.80;88.10;;;;;;4972574;28;20392;-72
2022/09/16 04:41:27;;;;;;;;;;;20.80;90.50;;;;;;4972817;28;19921;-72
2022/09/16 04:43:58;;;;;;;;;;;20.80;88.40;;;;;;4972293;28;19910;-70
2022/09/16 04:46:28;;;;;;;;;;;20.70;90.30;;;;;;4972234;28;19911;-69
2022/09/16 04:48:55;;;;;;;;;;;20.70;89.10;;;;;;4972737;28;19910;-70
2022/09/16 04:51:24;;;;;;;;;;;20.60;88.40;;;;;;4971622;28;19953;-70
2022/09/16 04:53:50;;;;;;;;;;;20.60;87.30;;;;;;4972720;28;20001;-71
2022/09/16 04:56:20;;;;;;;;;;;20.50;88.60;;;;;;4971743;28;19915;-69
2022/09/16 04:58:48;;;;;;;;;;;20.20;89.00;;;;;;4970384;28;19922;-71
2022/09/16 05:01:19;;;;;;;;;;;20.20;89.60;;;;;;4962037;28;20042;-69
2022/09/16 05:03:47;;;;;;;;;;;20.10;89.70;;;;;;4953908;29;19922;-72
2022/09/16 05:06:16;;;;;;;;;;;20.00;90.60;;;;;;4964400;28;19973;-70
2022/09/16 05:08:42;;;;;;;;;;;20.20;89.60;;;;;;4976471;28;19921;-68
2022/09/16 05:11:11;;;;;;;;;;;20.30;90.60;;;;;;4975163;28;19970;-71
2022/09/16 05:13:37;;;;;;;;;;;20.60;90.80;;;;;;4974307;28;19918;-70
2022/09/16 05:16:06;;;;;;;;;;;20.90;89.80;;;;;;4976372;28;19937;-71
2022/09/16 05:18:33;;;;;;;;;;;21.00;88.70;;;;;;4974921;28;20428;-71
2022/09/16 05:21:01;;;;;;;;;;;20.90;88.70;;;;;;4975316;28;19949;-71
2022/09/16 05:23:27;;;;;;;;;;;20.90;90.10;;;;;;4976206;28;19918;-71
2022/09/16 05:25:54;;;;;;;;;;;20.90;90.20;;;;;;4975478;28;19921;-70
2022/09/16 05:28:21;;;;;;;;;;;21.00;87.30;;;;;;4975374;28;19988;-72
2022/09/16 05:30:48;;;;;;;;;;;20.90;89.60;;;;;;4975585;28;19918;-70
2022/09/16 05:33:14;;;;;;;;;;;20.80;89.40;;;;;;4974420;28;19922;-70
2022/09/16 05:35:41;;;;;;;;;;;20.90;86.60;;;;;;4975932;28;20329;-71
2022/09/16 05:38:08;;;;;;;;;;;20.90;87.50;;;;;;4973119;28;20403;-68
2022/09/16 05:40:35;;;;;;;;;;;20.70;87.70;;;;;;4974255;28;19914;-68
2022/09/16 05:43:02;;;;;;;;;;;20.90;88.00;;;;;;4975538;28;19910;-69
2022/09/16 05:45:28;;;;;;;;;;;20.90;87.20;;;;;;4974760;28;19969;-73
2022/09/16 05:47:55;;;;;;;;;;;20.80;88.50;;;;;;4975715;28;19933;-70
2022/09/16 05:50:22;;;;;;;;;;;20.70;86.30;;;;;;4974532;28;20349;-70
2022/09/16 05:52:49;;;;;;;;;;;20.70;88.50;;;;;;4973589;28;19945;-71
2022/09/16 05:55:15;;;;;;;;;;;20.50;86.90;;;;;;4975425;28;19914;-71
2022/09/16 05:57:42;;;;;;;;;;;20.50;87.30;;;;;;4974612;28;19977;-71
2022/09/16 06:00:09;;;;;;;;;;;20.50;88.40;;;;;;4975288;28;19965;-72
2022/09/16 06:02:36;;;;;;;;;;;20.70;85.00;;;;;;4974742;28;19914;-72
2022/09/16 06:05:03;;;;;;;;;;;20.90;86.30;;;;;;4974099;28;19918;-71
2022/09/16 06:07:31;;;;;;;;;;;20.80;85.90;;;;;;4974064;28;20363;-71
2022/09/16 06:09:57;;;;;;;;;;;20.60;86.60;;;;;;4977965;28;19984;-70
2022/09/16 06:12:24;;;;;;;;;;;20.60;86.30;;;;;;4975409;28;19922;-71
2022/09/16 06:14:51;;;;;;;;;;;20.50;85.00;;;;;;4956336;29;20430;-71
2022/09/16 06:17:18;;;;;;;;;;;20.50;85.90;;;;;;4954517;28;20380;-69
2022/09/16 06:19:44;;;;;;;;;;;20.30;86.50;;;;;;4973575;28;20388;-69
2022/09/16 06:22:11;;;;;;;;;;;20.50;85.80;;;;;;4975382;28;19917;-69
2022/09/16 06:24:37;;;;;;;;;;;20.40;87.00;;;;;;4974607;28;19910;-71
2022/09/16 06:27:04;;;;;;;;;;;20.40;85.60;;;;;;4975163;28;19918;-72
2022/09/16 06:29:31;;;;;;;;;;;20.50;85.60;;;;;;4973623;28;19918;-70
2022/09/16 06:31:57;;;;;;;;;;;20.40;85.70;;;;;;4975056;28;19922;-71
2022/09/16 06:34:25;;;;;;;;;;;20.50;87.50;;;;;;4971025;28;19929;-69
2022/09/16 06:36:52;;;;;;;;;;;20.30;87.10;;;;;;4955551;29;19922;-69
2022/09/16 06:39:19;;;;;;;;;;;20.30;86.10;;;;;;4954071;28;19925;-72
2022/09/16 06:41:46;;;;;;;;;;;20.40;85.60;;;;;;4974701;28;19937;-72
2022/09/16 06:44:12;;;;;;;;;;;20.30;87.30;;;;;;4974035;28;19921;-69
2022/09/16 06:46:39;;;;;;;;;;;20.20;89.40;;;;;;4955580;29;20421;-70
2022/09/16 06:49:06;;;;;;;;;;;20.30;85.90;;;;;;4962371;28;19922;-70
2022/09/16 06:51:33;;;;;;;;;;;20.30;86.50;;;;;;4972994;28;20395;-72
2022/09/16 06:54:01;;;;;;;;;;;20.60;85.00;;;;;;4972786;28;19920;-69
2022/09/16 06:56:28;;;;;;;;;;;20.40;87.10;;;;;;4972849;28;20515;-71
2022/09/16 06:58:56;;;;;;;;;;;20.20;86.40;;;;;;4972325;28;20385;-70
2022/09/16 07:01:24;;;;;;;;;;;20.10;86.10;;;;;;4973137;28;19937;-68
2022/09/16 07:03:51;;;;;;;;;;;19.90;86.20;;;;;;4974900;28;20322;-69
2022/09/16 07:06:19;;;;;;;;;;;19.90;87.50;;;;;;4975960;28;19910;-70
2022/09/16 07:08:46;;;;;;;;;;;19.70;88.00;;;;;;4974628;28;20336;-72
2022/09/16 07:11:14;;;;;;;;;;;19.70;87.10;;;;;;4976077;28;19981;-71
2022/09/16 07:13:41;;;;;;;;;;;19.60;88.20;;;;;;4974848;28;19914;-70
2022/09/16 07:16:10;;;;;;;;;;;19.60;88.00;;;;;;4975324;28;19914;-70
2022/09/16 07:18:37;;;;;;;;;;;19.60;87.60;;;;;;4973158;28;20707;-68
2022/09/16 07:21:30;;;;;;;;;;;19.60;86.90;;;;;;4964992;28;19914;-70
2022/09/16 07:23:57;;;;;;;;;;;19.50;87.90;;;;;;4968614;28;19921;-70
2022/09/16 07:26:25;;;;;;;;;;;19.30;88.10;;;;;;4972202;28;20292;-69
2022/09/16 07:28:53;;;;;;;;;;;19.10;88.60;;;;;;4961537;28;20585;-72
2022/09/16 07:31:23;;;;;;;;;;;19.00;89.40;;;;;;4962149;28;19930;-69
2022/09/16 07:33:50;;;;;;;;;;;19.00;89.40;;;;;;4970918;28;19918;-69
2022/09/16 07:36:18;;;;;;;;;;;18.90;89.40;;;;;;4972258;28;19914;-69
2022/09/16 07:38:45;;;;;;;;;;;19.10;88.80;;;;;;4970698;28;19917;-68
2022/09/16 07:41:19;;;;;;;;;;;19.00;89.00;;;;;;4971607;28;19918;-70
2022/09/16 07:43:46;;;;;;;;;;;18.90;89.50;;;;;;4970443;28;19917;-68
2022/09/16 07:46:15;;;;;;;;;;;18.80;89.70;;;;;;4971481;28;20433;-71
2022/09/16 07:48:43;;;;;;;;;;;18.70;90.10;;;;;;4976043;28;19960;-69
2022/09/16 07:51:11;;;;;;;;;;;18.60;90.30;;;;;;4970730;28;19926;-72
2022/09/16 07:53:38;;;;;;;;;;;18.60;90.40;;;;;;4971591;28;20354;-71
2022/09/16 07:56:06;;;;;;;;;;;18.50;90.40;;;;;;4970519;28;19914;-69
2022/09/16 07:58:33;;;;;;;;;;;18.40;90.70;;;;;;4968851;28;19922;-71
2022/09/16 08:01:00;;;;;;;;;;;18.30;91.10;;;;;;4970413;28;20068;-71
2022/09/16 08:03:27;;;;;;;;;;;18.40;91.60;;;;;;4971348;28;19911;-72
2022/09/16 08:05:58;;;;;;;;;;;18.30;91.10;;;;;;4970595;28;19964;-70
2022/09/16 08:08:25;;;;;;;;;;;18.30;91.30;;;;;;4971094;28;19910;-72
2022/09/16 08:10:54;;;;;;;;;;;18.40;91.50;;;;;;4953026;28;19962;-70
2022/09/16 08:13:21;;;;;;;;;;;18.30;91.40;;;;;;4950255;28;19923;-70
2022/09/16 08:15:48;;;;;;;;;;;18.30;91.50;;;;;;4966157;28;19926;-68
2022/09/16 08:18:14;;;;;;;;;;;18.20;91.60;;;;;;4971144;28;20632;-71
2022/09/16 08:20:41;;;;;;;;;;;18.20;91.80;;;;;;4970639;28;19914;-68
2022/09/16 08:23:08;;;;;;;;;;;18.00;92.00;;;;;;4970663;28;19915;-69
2022/09/16 08:25:35;;;;;;;;;;;18.00;92.00;;;;;;4970657;28;19968;-70
2022/09/16 08:28:02;;;;;;;;;;;18.10;92.50;;;;;;4969470;28;19922;-69
2022/09/16 08:30:29;;;;;;;;;;;18.20;92.20;;;;;;4968514;28;19918;-68
2022/09/16 08:32:56;;;;;;;;;;;18.20;92.30;;;;;;4971269;28;20337;-70
2022/09/16 08:35:23;;;;;;;;;;;18.20;92.10;;;;;;4969637;28;19918;-68
2022/09/16 08:37:50;;;;;;;;;;;18.20;92.20;;;;;;4970953;28;20005;-70
2022/09/16 08:40:19;;;;;;;;;;;18.20;92.40;;;;;;4969415;28;20005;-69
2022/09/16 08:42:54;;;;;;;;;;;18.10;92.80;;;;;;4975216;28;19957;-68
2022/09/16 08:45:21;;;;;;;;;;;18.30;93.00;;;;;;4974371;28;19918;-68
2022/09/16 08:48:06;;;;;;;;;;;18.20;93.10;;;;;;4975150;28;19914;-70
2022/09/16 08:50:36;;;;;;;;;;;18.20;93.60;;;;;;4973382;28;19922;-71
2022/09/16 08:53:04;;;;;;;;;;;18.20;93.60;;;;;;4973256;28;20036;-69
2022/09/16 08:55:36;;;;;;;;;;;18.30;93.90;;;;;;4974877;28;19921;-70
2022/09/16 08:58:03;;;;;;;;;;;18.30;94.50;;;;;;4973759;28;20440;-68
2022/09/16 09:00:30;;;;;;;;;;;18.30;94.30;;;;;;4974567;28;20424;-68
2022/09/16 09:03:01;;;;;;;;;;;18.30;94.20;;;;;;4973396;28;19916;-69
2022/09/16 09:05:50;;;;;;;;;;;18.30;94.40;;;;;;4973174;28;19917;-68
2022/09/16 09:08:37;;;;;;;;;;;18.30;94.40;;;;;;4969069;28;19931;-68
2022/09/16 09:11:16;;;;;;;;;;;18.20;94.40;;;;;;4973527;28;19918;-71
2022/09/16 09:13:49;;;;;;;;;;;18.10;94.90;;;;;;4974578;28;19918;-69
2022/09/16 09:16:15;;;;;;;;;;;18.20;94.80;;;;;;4973510;28;19913;-70
2022/09/16 09:18:51;;;;;;;;;;;18.20;95.30;;;;;;4972427;28;19918;-71
2022/09/16 09:21:30;;;;;;;;;;;18.20;94.80;;;;;;4975570;28;19914;-74
2022/09/16 09:24:09;;;;;;;;;;;18.20;94.50;;;;;;4977741;28;19965;-71
2022/09/16 09:26:42;;;;;;;;;;;18.20;95.20;;;;;;4973794;28;20010;-68
2022/09/16 09:29:23;;;;;;;;;;;18.10;95.30;;;;;;4971566;28;19925;-70
2022/09/16 09:32:13;;;;;;;;;;;18.00;95.40;;;;;;4972298;28;19977;-72
2022/09/16 09:34:50;;;;;;;;;;;17.90;95.90;;;;;;4950241;28;19918;-71
2022/09/16 09:37:20;;;;;;;;;;;17.90;95.50;;;;;;4954843;29;19918;-70
2022/09/16 09:39:56;;;;;;;;;;;18.00;95.70;;;;;;4954208;28;19983;-69
2022/09/16 09:42:25;;;;;;;;;;;17.90;95.70;;;;;;4971801;28;19918;-69
2022/09/16 09:45:10;;;;;;;;;;;17.90;95.30;;;;;;4974017;28;20412;-71
2022/09/16 09:47:41;;;;;;;;;;;17.90;95.70;;;;;;4955760;28;19914;-73
2022/09/16 09:50:18;;;;;;;;;;;17.80;96.30;;;;;;4973673;28;19920;-71
2022/09/16 09:52:52;;;;;;;;;;;17.90;95.90;;;;;;4972954;28;20412;-68
2022/09/16 09:55:20;;;;;;;;;;;17.80;95.80;;;;;;4972536;28;20281;-71
2022/09/16 09:58:00;;;;;;;;;;;17.90;96.20;;;;;;4973809;28;20391;-73
2022/09/16 10:00:27;;;;;;;;;;;17.80;96.00;;;;;;4972427;28;19926;-71
2022/09/16 10:03:02;;;;;;;;;;;17.80;95.90;;;;;;4973546;28;19918;-71
2022/09/16 10:05:29;;;;;;;;;;;17.80;95.80;;;;;;4972939;28;19918;-72
2022/09/16 10:08:04;;;;;;;;;;;17.70;95.70;;;;;;4971079;28;19914;-70
2022/09/16 10:10:32;;;;;;;;;;;17.70;95.70;;;;;;4973573;28;20253;-72
2022/09/16 10:13:19;;;;;;;;;;;17.60;96.20;;;;;;4974004;28;19919;-71
2022/09/16 10:15:46;;;;;;;;;;;17.50;96.10;;;;;;4973119;28;20345;-73
2022/09/16 10:18:14;;;;;;;;;;;17.60;96.30;;;;;;4971189;28;19917;-73
2022/09/16 10:20:44;;;;;;;;;;;17.50;96.00;;;;;;4973290;28;19950;-71
2022/09/16 10:23:10;;;;;;;;;;;17.60;96.00;;;;;;4972415;28;19918;-71
2022/09/16 10:25:37;;;;;;;;;;;17.60;95.80;;;;;;4973380;28;20343;-69
2022/09/16 10:28:05;;;;;;;;;;;17.60;95.80;;;;;;4971197;28;19910;-73
2022/09/16 10:30:42;;;;;;;;;;;17.60;95.90;;;;;;4973087;28;19973;-69
2022/09/16 10:33:16;;;;;;;;;;;17.60;96.30;;;;;;4971620;28;19925;-74
2022/09/16 10:35:50;;;;;;;;;;;17.50;96.00;;;;;;4973321;28;19921;-73
2022/09/16 10:38:19;;;;;;;;;;;17.50;95.90;;;;;;4970803;28;20638;-68
2022/09/16 10:40:56;;;;;;;;;;;17.50;96.00;;;;;;4973061;28;19921;-72
2022/09/16 10:43:24;;;;;;;;;;;17.50;95.70;;;;;;4971799;28;19969;-71
2022/09/16 10:45:52;;;;;;;;;;;17.40;95.60;;;;;;4973042;28;19965;-72
2022/09/16 10:48:21;;;;;;;;;;;17.40;95.70;;;;;;4970472;28;19914;-74
2022/09/16 10:50:59;;;;;;;;;;;17.40;95.50;;;;;;4972980;28;19914;-74
2022/09/16 10:53:36;;;;;;;;;;;17.40;95.90;;;;;;4971639;28;19930;-72
2022/09/16 10:56:14;;;;;;;;;;;17.40;95.20;;;;;;4973044;28;19918;-73
2022/09/16 10:58:41;;;;;;;;;;;17.40;95.50;;;;;;4970948;28;19953;-73
2022/09/16 11:01:14;;;;;;;;;;;17.40;96.00;;;;;;4972193;28;19920;-74
2022/09/16 11:03:50;;;;;;;;;;;17.40;96.80;;;;;;4971486;28;19910;-69
2022/09/16 11:06:24;;;;;;;;;;;17.30;96.10;;;;;;4971732;28;19965;-72
2022/09/16 11:09:04;;;;;;;;;;;17.30;96.60;;;;;;4955191;28;19997;-71
2022/09/16 11:11:36;;;;;;;;;;;17.20;96.70;;;;;;4971630;28;19929;-72
2022/09/16 11:14:21;;;;;;;;;;;17.10;97.10;;;;;;4970951;28;19918;-69
2022/09/16 11:16:51;;;;;;;;;;;17.10;97.20;;;;;;4972415;28;19993;-72
2022/09/16 11:19:43;;;;;;;;;;;17.10;96.80;;;;;;4969941;28;19921;-73
2022/09/16 11:22:19;;;;;;;;;;;17.10;96.80;;;;;;4963809;28;19918;-74
2022/09/16 11:25:14;;;;;;;;;;;17.00;96.80;;;;;;4964003;28;19925;-73
2022/09/16 11:27:47;;;;;;;;;;;17.00;96.90;;;;;;4970878;28;19918;-73
2022/09/16 11:30:24;;;;;;;;;;;17.00;96.60;;;;;;4971731;28;19921;-72
2022/09/16 11:32:56;;;;;;;;;;;17.10;96.10;;;;;;4971060;28;19922;-73
2022/09/16 11:35:41;;;;;;;;;;;17.10;96.00;;;;;;4970689;28;19918;-73
2022/09/16 11:38:25;;;;;;;;;;;17.10;95.50;;;;;;4968426;28;20000;-71
2022/09/16 11:40:58;;;;;;;;;;;17.10;95.80;;;;;;4952707;29;19969;-72
2022/09/16 11:43:54;;;;;;;;;;;17.20;95.70;;;;;;4955699;28;20353;-73
2022/09/16 11:46:27;;;;;;;;;;;17.20;95.80;;;;;;4935765;28;19911;-71
2022/09/16 11:48:59;;;;;;;;;;;17.30;95.60;;;;;;4970446;28;19914;-71
2022/09/16 11:51:41;;;;;;;;;;;17.20;95.30;;;;;;4970757;28;20373;-69
2022/09/16 11:54:26;;;;;;;;;;;17.20;95.40;;;;;;4971754;28;19977;-71
2022/09/16 11:56:57;;;;;;;;;;;17.20;95.10;;;;;;4970835;28;19918;-71
2022/09/16 11:59:30;;;;;;;;;;;17.20;95.30;;;;;;4969938;28;19948;-74
2022/09/16 12:02:01;;;;;;;;;;;17.20;95.20;;;;;;4971668;28;20017;-73
2022/09/16 12:04:35;;;;;;;;;;;17.20;95.30;;;;;;4970478;28;20296;-72
2022/09/16 12:07:05;;;;;;;;;;;17.10;95.70;;;;;;4970523;28;20013;-72
2022/09/16 12:09:49;;;;;;;;;;;17.10;95.90;;;;;;4971051;28;20051;-74
2022/09/16 12:12:17;;;;;;;;;;;17.10;96.10;;;;;;4970688;28;19930;-73
2022/09/16 12:15:02;;;;;;;;;;;17.00;96.70;;;;;;4970520;28;20424;-74
2022/09/16 12:17:31;;;;;;;;;;;17.00;96.20;;;;;;4970132;28;19924;-74
2022/09/16 12:20:27;;;;;;;;;;;16.90;96.40;;;;;;4969414;28;19918;-72
2022/09/16 12:23:11;;;;;;;;;;;16.90;96.20;;;;;;4958681;28;19910;-72
2022/09/16 12:25:38;;;;;;;;;;;16.90;96.30;;;;;;4953983;28;19918;-73
2022/09/16 12:28:15;;;;;;;;;;;16.90;96.00;;;;;;4969289;28;19914;-70
2022/09/16 12:30:44;;;;;;;;;;;16.90;96.10;;;;;;4951869;29;19929;-71
2022/09/16 12:33:16;;;;;;;;;;;17.00;96.30;;;;;;4951974;29;20397;-71
2022/09/16 12:35:42;;;;;;;;;;;16.90;95.90;;;;;;4951968;29;19914;-71
2022/09/16 12:38:16;;;;;;;;;;;17.00;96.10;;;;;;4951519;29;19938;-73
2022/09/16 12:40:51;;;;;;;;;;;17.00;95.40;;;;;;4951808;29;19914;-72
2022/09/16 12:43:36;;;;;;;;;;;17.00;95.40;;;;;;4951665;29;19914;-70
2022/09/16 12:46:09;;;;;;;;;;;17.00;95.70;;;;;;4952005;29;20444;-71
2022/09/16 12:48:41;;;;;;;;;;;17.00;95.60;;;;;;4951738;29;19918;-72
2022/09/16 12:51:08;;;;;;;;;;;17.00;95.20;;;;;;4951902;29;19925;-71
2022/09/16 12:53:55;;;;;;;;;;;17.00;95.30;;;;;;4952166;29;19918;-72
2022/09/16 12:56:39;;;;;;;;;;;17.00;95.40;;;;;;4954936;29;19910;-70
2022/09/16 12:59:19;;;;;;;;;;;17.00;95.10;;;;;;4953771;29;19949;-74
2022/09/16 13:01:47;;;;;;;;;;;17.00;95.60;;;;;;4951828;29;19962;-71
2022/09/16 13:04:16;;;;;;;;;;;17.00;95.20;;;;;;4951808;29;19915;-72
2022/09/16 13:06:57;;;;;;;;;;;17.00;95.60;;;;;;4951760;29;19930;-72
2022/09/16 13:09:32;;;;;;;;;;;17.00;95.50;;;;;;4951297;29;19910;-72
2022/09/16 13:12:01;;;;;;;;;;;17.00;95.80;;;;;;4951551;29;19926;-71
2022/09/16 13:14:32;;;;;;;;;;;17.00;96.20;;;;;;4951540;29;19914;-72
2022/09/16 13:17:01;;;;;;;;;;;17.00;95.40;;;;;;4951620;29;19999;-73
2022/09/16 13:19:46;;;;;;;;;;;16.90;95.60;;;;;;4959397;28;19916;-69
2022/09/16 13:22:31;;;;;;;;;;;17.00;96.00;;;;;;4970817;28;20392;-70
2022/09/16 13:25:08;;;;;;;;;;;16.90;96.20;;;;;;4969555;28;19965;-71
2022/09/16 13:27:36;;;;;;;;;;;16.90;95.90;;;;;;4973656;28;19936;-73
2022/09/16 13:30:12;;;;;;;;;;;17.00;96.20;;;;;;4973836;28;20497;-73
2022/09/16 13:32:45;;;;;;;;;;;16.90;95.80;;;;;;4974451;28;19922;-71
2022/09/16 13:35:17;;;;;;;;;;;16.90;95.60;;;;;;4974087;28;19961;-70
2022/09/16 13:37:44;;;;;;;;;;;17.00;96.10;;;;;;4973626;28;19910;-74
2022/09/16 13:40:25;;;;;;;;;;;17.00;96.00;;;;;;4974297;28;19918;-73
2022/09/16 13:43:03;;;;;;;;;;;17.00;96.40;;;;;;4974037;28;20001;-69
2022/09/16 13:45:40;;;;;;;;;;;16.90;95.90;;;;;;4974154;28;20313;-71
2022/09/16 13:48:10;;;;;;;;;;;16.90;96.20;;;;;;4973640;28;19961;-72
2022/09/16 13:50:38;;;;;;;;;;;16.90;96.20;;;;;;4973547;28;19910;-72
2022/09/16 13:53:09;;;;;;;;;;;16.90;96.40;;;;;;4973809;28;19918;-72
2022/09/16 13:55:36;;;;;;;;;;;16.90;96.30;;;;;;4973951;28;19933;-72
2022/09/16 13:58:15;;;;;;;;;;;16.90;96.20;;;;;;4973239;28;19922;-74
2022/09/16 14:01:04;;;;;;;;;;;16.90;96.80;;;;;;4973695;28;19926;-72
2022/09/16 14:03:42;;;;;;;;;;;16.90;96.40;;;;;;4973401;28;20407;-71
2022/09/16 14:06:27;;;;;;;;;;;16.80;96.70;;;;;;4974916;28;20272;-72
2022/09/16 14:08:53;;;;;;;;;;;16.80;96.60;;;;;;4975038;28;19914;-72
2022/09/16 14:11:58;;;;;;;;;;;16.80;97.00;;;;;;4975152;28;20020;-73
2022/09/16 14:14:27;;;;;;;;;;;16.80;96.90;;;;;;4915334;29;19954;-73
2022/09/16 14:16:54;;;;;;;;;;;16.80;96.90;;;;;;4915666;29;20394;-73
2022/09/16 14:19:20;;;;;;;;;;;16.80;97.20;;;;;;4943520;28;19958;-74
2022/09/16 14:22:00;;;;;;;;;;;16.80;97.30;;;;;;4974871;28;19961;-72
2022/09/16 14:24:37;;;;;;;;;;;16.80;97.10;;;;;;4975329;28;19914;-72
2022/09/16 14:27:04;;;;;;;;;;;16.70;97.00;;;;;;4975722;28;20379;-73
2022/09/16 14:29:31;;;;;;;;;;;16.80;97.30;;;;;;4976428;28;19978;-73
2022/09/16 14:31:58;;;;;;;;;;;16.80;97.20;;;;;;4975700;28;19929;-74
2022/09/16 14:34:28;;;;;;;;;;;16.70;97.40;;;;;;4977706;28;20376;-71
2022/09/16 14:36:54;;;;;;;;;;;16.70;97.20;;;;;;4976636;28;19914;-73
2022/09/16 14:39:23;;;;;;;;;;;16.70;97.20;;;;;;4974790;28;19914;-72